Hlavní strana
METAR-TAF:

METAR-TAF

Letiště :

Varna, Bulharsko

zeměpisná šířka: 43-12N, zeměpisná délka: 027-55E, výška: 41 m

Aktuální stav počasí

Zpráva byla vytvořena před 26 minutami, v 14:00 UTC
Západní vítr 16 kt
Teplota 0°C
Vlhkost vzduchu 55%
Tlak 1023 hPa
Viditelnost 10 km a více
Skoro jasno ve výšce 4000 ft

METAR: LBWN 191400Z 27016KT 9999 FEW040 00/M08 Q1023 NOSIG

Čas: 16:26 (14:26 UTC)

Předpověď počasí

Zpráva byla vytvořena před 3 hodinami a 26 minutami, v 11:00 UTC
Předpověď platná od 19 v 12 UTC do 20 v 12 UTC
Západní vítr 12 kt
Viditelnost 10 km a více
Oblačno až skoro zataženo ve výšce 3000 ft

TAF: LBWN 191100Z 1912/2012 28012KT 9999 BKN030

Stav a předpovědi počasí z více než 4 000 letišť (zprávy METAR a TAF).

Červené a žluté tečky na mapě představují dostupné meteorologické stanice.

Když kurzor umístíte na tečku, zobrazí se název stanice.

Pak kliknutím zobrazíte stav a předpověď počasí.

Chcete-li změnit mapu, kliknutím na zelené tlačítko se znaménkem +mapu přiblížíte, kliknutím na zelené tlačítko se znaménkem – mapu oddálíte a kliknutím na zelené šipky přejdete na sousední mapy.


METAR-TAF: